createdAt,value
2016-12-22T00:00:48.536Z,26.3
2016-12-22T00:01:47.434Z,26.3
2016-12-22T00:02:47.510Z,26.3
2016-12-22T00:03:48.625Z,26.3
2016-12-22T00:04:48.694Z,26.4
2016-12-22T00:05:47.700Z,26.3
2016-12-22T00:06:47.774Z,26.4
2016-12-22T00:07:47.913Z,26.3
2016-12-22T00:08:48.907Z,26.3
2016-12-22T00:09:47.889Z,26.3
2016-12-22T00:10:47.931Z,26.3
2016-12-22T00:11:48.026Z,26.3
2016-12-22T00:16:36.598Z,26.3
2016-12-22T00:17:36.454Z,26.4
2016-12-22T00:18:36.630Z,26.4
2016-12-22T00:19:36.646Z,26.4
2016-12-22T00:20:37.693Z,26.4
2016-12-22T00:21:37.902Z,26.4
2016-12-22T00:22:36.721Z,26.4
2016-12-22T00:23:37.886Z,26.4
2016-12-22T00:24:37.940Z,26.4
2016-12-22T00:25:37.910Z,26.4
2016-12-22T00:26:37.909Z,26.4
2016-12-22T00:27:38.080Z,26.4
2016-12-22T00:28:37.079Z,26.4
2016-12-22T00:29:38.214Z,26.4
2016-12-22T00:30:37.226Z,26.4
2016-12-22T00:31:38.353Z,26.4
2016-12-22T00:32:37.284Z,26.4
2016-12-22T00:33:37.406Z,26.4
2016-12-22T00:34:38.532Z,26.4
2016-12-22T00:35:37.453Z,26.4
2016-12-22T00:36:37.537Z,26.4
2016-12-22T00:37:38.563Z,26.4
2016-12-22T00:38:38.607Z,26.4
2016-12-22T00:39:37.588Z,26.4
2016-12-22T00:40:37.612Z,26.4
2016-12-22T00:41:37.688Z,26.4
2016-12-22T00:42:42.109Z,26.4
2016-12-22T00:43:38.846Z,26.4
2016-12-22T00:44:37.811Z,26.4
2016-12-22T00:45:38.014Z,26.4
2016-12-22T00:46:38.988Z,26.4
2016-12-22T00:47:38.624Z,26.4
2016-12-22T00:48:38.160Z,26.3
2016-12-22T00:49:39.211Z,26.4
2016-12-22T00:50:38.065Z,26.4
2016-12-22T00:51:39.283Z,26.4
2016-12-22T00:52:39.258Z,26.4
2016-12-22T00:53:39.288Z,26.4
2016-12-22T00:54:39.362Z,26.4
2016-12-22T00:55:39.344Z,26.4
2016-12-22T00:56:38.309Z,26.4
2016-12-22T00:57:38.393Z,26.4
2016-12-22T00:58:38.456Z,26.4
2016-12-22T00:59:39.601Z,26.4
2016-12-22T01:00:39.604Z,26.3
2016-12-22T01:01:38.645Z,26.4
2016-12-22T01:02:39.811Z,26.4
2016-12-22T01:03:38.827Z,26.4
2016-12-22T01:04:39.901Z,26.4
2016-12-22T01:05:39.951Z,26.4
2016-12-22T01:06:38.922Z,26.4
2016-12-22T01:07:38.946Z,26.4
2016-12-22T01:08:40.010Z,26.4
2016-12-22T01:09:38.974Z,26.4
2016-12-22T01:10:39.013Z,26.4
2016-12-22T01:11:40.273Z,26.4
2016-12-22T01:12:39.200Z,26.4
2016-12-22T01:13:39.291Z,26.4
2016-12-22T01:14:39.300Z,26.4
2016-12-22T01:15:39.415Z,26.4
2016-12-22T01:16:40.402Z,26.4
2016-12-22T01:17:39.427Z,26.4
2016-12-22T01:18:40.494Z,26.4
2016-12-22T01:19:40.657Z,26.4
2016-12-22T01:20:39.470Z,26.4
2016-12-22T01:21:40.634Z,26.4
2016-12-22T01:22:41.364Z,26.4
2016-12-22T01:23:40.667Z,26.4
2016-12-22T01:24:39.732Z,26.4
2016-12-22T01:25:40.737Z,26.4
2016-12-22T01:26:39.702Z,26.4
2016-12-22T01:27:39.785Z,26.4
2016-12-22T01:28:40.927Z,26.4
2016-12-22T01:29:40.933Z,26.4
2016-12-22T01:30:40.958Z,26.4
2016-12-22T01:31:39.948Z,26.4
2016-12-22T01:32:40.027Z,26.4
2016-12-22T01:33:40.208Z,26.4
2016-12-22T01:34:41.280Z,26.4
2016-12-22T01:35:40.279Z,26.4
2016-12-22T01:36:40.217Z,26.4
2016-12-22T01:37:40.314Z,26.4
2016-12-22T01:38:41.436Z,26.4
2016-12-22T01:39:41.418Z,26.4
2016-12-22T01:40:40.525Z,26.4
2016-12-22T01:41:41.667Z,26.3
2016-12-22T01:42:40.550Z,26.4
2016-12-22T01:43:40.703Z,26.4
2016-12-22T01:44:41.809Z,26.3
2016-12-22T01:45:41.410Z,26.3
2016-12-22T01:46:40.889Z,26.4
2016-12-22T01:47:42.018Z,26.4
2016-12-22T01:48:42.009Z,26.4
2016-12-22T01:49:42.058Z,26.4
2016-12-22T01:50:41.011Z,26.4
2016-12-22T01:51:42.159Z,26.4
2016-12-22T01:52:42.237Z,26.4
2016-12-22T01:53:42.308Z,26.4
2016-12-22T01:54:42.320Z,26.4
2016-12-22T01:55:41.330Z,26.4
2016-12-22T01:56:41.378Z,26.4
2016-12-22T01:57:42.603Z,26.4
2016-12-22T01:58:42.701Z,26.4
2016-12-22T01:59:42.690Z,26.4
2016-12-22T02:00:42.796Z,26.4
2016-12-22T02:01:42.838Z,26.4
2016-12-22T02:02:41.791Z,26.4
2016-12-22T02:03:41.861Z,26.4
2016-12-22T02:04:42.972Z,26.4
2016-12-22T02:05:41.976Z,26.4
2016-12-22T02:06:41.972Z,26.4
2016-12-22T02:07:43.105Z,26.4
2016-12-22T02:08:42.075Z,26.4
2016-12-22T02:09:43.120Z,26.4
2016-12-22T02:10:43.168Z,26.4
2016-12-22T02:11:43.178Z,26.4
2016-12-22T02:12:42.253Z,26.4
2016-12-22T02:13:43.279Z,26.4
2016-12-22T02:14:42.241Z,26.4
2016-12-22T02:15:42.401Z,26.4
2016-12-22T02:16:43.442Z,26.4
2016-12-22T02:17:42.405Z,26.4
2016-12-22T02:18:43.613Z,26.4
2016-12-22T02:19:42.623Z,26.4
2016-12-22T02:20:43.633Z,26.4
2016-12-22T02:21:42.644Z,26.4
2016-12-22T02:22:42.715Z,26.4
2016-12-22T02:23:43.833Z,26.4
2016-12-22T02:24:43.872Z,26.4
2016-12-22T02:25:43.973Z,26.4
2016-12-22T02:26:43.956Z,26.4
2016-12-22T02:27:43.995Z,26.4
2016-12-22T02:28:44.108Z,26.4
2016-12-22T02:29:44.123Z,26.4
2016-12-22T02:30:43.017Z,26.4
2016-12-22T02:31:43.182Z,26.4
2016-12-22T02:32:43.165Z,26.4
2016-12-22T02:33:43.180Z,26.4
2016-12-22T02:34:44.490Z,26.4
2016-12-22T02:35:43.364Z,26.4
2016-12-22T02:36:43.415Z,26.4
2016-12-22T02:37:43.473Z,26.4
2016-12-22T02:38:43.367Z,26.4
2016-12-22T02:39:44.520Z,26.4
2016-12-22T02:40:43.549Z,26.4
2016-12-22T02:41:44.666Z,26.4
2016-12-22T02:42:44.668Z,26.4
2016-12-22T02:43:44.725Z,26.4
2016-12-22T02:44:43.687Z,26.4
2016-12-22T02:45:44.616Z,26.4
2016-12-22T02:46:45.042Z,26.4
2016-12-22T02:47:43.825Z,26.4
2016-12-22T02:48:45.212Z,26.4
2016-12-22T02:49:45.147Z,26.4
2016-12-22T02:50:45.084Z,26.4
2016-12-22T02:51:44.129Z,26.4
2016-12-22T02:52:44.107Z,26.4
2016-12-22T02:53:44.354Z,26.4
2016-12-22T02:54:44.293Z,26.4
2016-12-22T02:55:44.320Z,26.4
2016-12-22T02:56:44.349Z,26.4
2016-12-22T02:57:45.581Z,26.4
2016-12-22T02:58:44.706Z,26.4
2016-12-22T02:59:45.626Z,26.4
2016-12-22T03:00:45.681Z,26.4
2016-12-22T03:01:45.695Z,26.4
2016-12-22T03:02:44.695Z,26.4
2016-12-22T03:03:45.831Z,26.4
2016-12-22T03:04:45.846Z,26.4
2016-12-22T03:05:44.934Z,26.4
2016-12-22T03:06:46.140Z,26.4
2016-12-22T03:07:46.086Z,26.4
2016-12-22T03:08:45.050Z,26.4
2016-12-22T03:09:45.107Z,26.4
2016-12-22T03:10:47.170Z,26.4
2016-12-22T03:11:45.890Z,26.4
2016-12-22T03:12:46.408Z,26.4
2016-12-22T03:13:46.767Z,26.4
2016-12-22T03:14:47.243Z,26.4
2016-12-22T03:15:45.471Z,26.4
2016-12-22T03:16:46.255Z,26.4
2016-12-22T03:17:47.152Z,26.4
2016-12-22T03:18:45.507Z,26.4
2016-12-22T03:19:46.930Z,26.4
2016-12-22T03:20:45.830Z,26.4
2016-12-22T03:21:45.813Z,26.4
2016-12-22T03:22:46.921Z,26.4
2016-12-22T03:23:45.868Z,26.4
2016-12-22T03:24:47.794Z,26.4
2016-12-22T03:25:45.841Z,26.4
2016-12-22T03:26:45.894Z,26.4
2016-12-22T03:27:45.961Z,26.4
2016-12-22T03:28:47.147Z,26.4
2016-12-22T03:29:46.101Z,26.4
2016-12-22T03:30:46.101Z,26.4
2016-12-22T03:31:47.280Z,26.4
2016-12-22T03:32:46.392Z,26.4
2016-12-22T03:33:47.361Z,26.4
2016-12-22T03:34:46.424Z,26.4
2016-12-22T03:35:47.552Z,26.4
2016-12-22T03:36:46.620Z,26.4
2016-12-22T03:37:46.683Z,26.4
2016-12-22T03:38:46.689Z,26.4
2016-12-22T03:39:46.808Z,26.4
2016-12-22T03:40:47.848Z,26.4
2016-12-22T03:41:46.870Z,26.4
2016-12-22T03:42:46.869Z,26.4
2016-12-22T03:43:46.995Z,26.4
2016-12-22T03:44:46.976Z,26.4
2016-12-22T03:45:47.084Z,26.4
2016-12-22T03:46:49.066Z,26.4
2016-12-22T03:47:47.173Z,26.4
2016-12-22T03:48:47.245Z,26.4
2016-12-22T03:49:48.154Z,26.4
2016-12-22T03:50:48.337Z,26.4
2016-12-22T03:51:47.330Z,26.4
2016-12-22T03:52:48.897Z,26.4
2016-12-22T03:53:49.586Z,26.4
2016-12-22T03:54:49.472Z,26.4
2016-12-22T03:55:48.107Z,26.4
2016-12-22T03:56:50.825Z,26.4
2016-12-22T03:57:47.738Z,26.4
2016-12-22T03:58:48.805Z,26.4
2016-12-22T03:59:48.783Z,26.4
2016-12-22T04:00:48.783Z,26.4
2016-12-22T04:01:47.710Z,26.4
2016-12-22T04:02:48.803Z,26.4
2016-12-22T04:03:47.908Z,26.4
2016-12-22T04:04:47.788Z,26.4
2016-12-22T04:05:47.896Z,26.4
2016-12-22T04:06:48.967Z,26.4
2016-12-22T04:07:47.977Z,26.4
2016-12-22T04:08:48.092Z,26.4
2016-12-22T04:09:49.105Z,26.4
2016-12-22T04:10:48.088Z,26.4
2016-12-22T04:11:48.097Z,26.4
2016-12-22T04:12:49.187Z,26.4
2016-12-22T04:13:48.300Z,26.4
2016-12-22T04:14:49.465Z,26.4
2016-12-22T04:15:48.425Z,26.5
2016-12-22T04:16:48.459Z,26.5
2016-12-22T04:17:49.534Z,26.5
2016-12-22T04:18:48.530Z,26.5
2016-12-22T04:19:48.512Z,26.4
2016-12-22T04:20:48.596Z,26.4
2016-12-22T04:21:48.584Z,26.4
2016-12-22T04:22:48.667Z,26.4
2016-12-22T04:23:49.745Z,26.4
2016-12-22T04:24:48.812Z,26.4
2016-12-22T04:25:49.977Z,26.4
2016-12-22T04:26:48.978Z,26.5
2016-12-22T04:27:49.044Z,26.5
2016-12-22T04:28:50.037Z,26.5
2016-12-22T04:29:49.084Z,26.5
2016-12-22T04:30:50.155Z,26.4
2016-12-22T04:31:49.162Z,26.4
2016-12-22T04:32:49.283Z,26.4
2016-12-22T04:33:49.200Z,26.4
2016-12-22T04:34:50.433Z,26.5
2016-12-22T04:35:50.467Z,26.4
2016-12-22T04:36:50.472Z,26.5
2016-12-22T04:37:49.428Z,26.4
2016-12-22T04:38:49.540Z,26.5
2016-12-22T04:39:49.508Z,26.5
2016-12-22T04:40:49.676Z,26.5
2016-12-22T04:41:49.613Z,26.5
2016-12-22T04:42:49.817Z,26.5
2016-12-22T04:43:49.704Z,26.5
2016-12-22T04:44:50.861Z,26.5
2016-12-22T04:45:50.045Z,26.5
2016-12-22T04:46:51.082Z,26.5
2016-12-22T04:47:51.016Z,26.5
2016-12-22T04:48:50.131Z,26.5
2016-12-22T04:49:50.057Z,26.4
2016-12-22T04:50:51.222Z,26.5
2016-12-22T04:51:51.224Z,26.5
2016-12-22T04:52:50.266Z,26.5
2016-12-22T04:53:51.260Z,26.5
2016-12-22T04:54:51.381Z,26.5
2016-12-22T04:55:50.230Z,26.5
2016-12-22T04:56:51.416Z,26.4
2016-12-22T04:57:50.442Z,26.5
2016-12-22T04:58:51.519Z,26.5
2016-12-22T04:59:51.545Z,26.5
2016-12-22T05:00:51.592Z,26.5
2016-12-22T05:01:50.497Z,26.5
2016-12-22T05:02:50.680Z,26.5
2016-12-22T05:03:51.750Z,26.5
2016-12-22T05:04:50.796Z,26.5
2016-12-22T05:05:50.775Z,26.5
2016-12-22T05:06:50.741Z,26.5
2016-12-22T05:07:50.823Z,26.6
2016-12-22T05:08:50.865Z,26.6
2016-12-22T05:09:50.961Z,26.6
2016-12-22T05:10:50.927Z,26.6
2016-12-22T05:11:52.002Z,26.6
2016-12-22T05:12:52.027Z,26.6
2016-12-22T05:13:52.068Z,26.6
2016-12-22T05:14:52.164Z,26.6
2016-12-22T05:15:51.089Z,26.6
2016-12-22T05:16:52.325Z,26.6
2016-12-22T05:17:51.331Z,26.6
2016-12-22T05:18:51.226Z,26.6
2016-12-22T05:19:51.395Z,26.6
2016-12-22T05:20:52.406Z,26.6
2016-12-22T05:21:51.345Z,26.6
2016-12-22T05:22:52.448Z,26.6
2016-12-22T05:23:52.549Z,26.6
2016-12-22T05:24:52.490Z,26.6
2016-12-22T05:25:52.570Z,26.6
2016-12-22T05:26:52.613Z,26.6
2016-12-22T05:27:52.593Z,26.6
2016-12-22T05:28:52.750Z,26.6
2016-12-22T05:29:51.791Z,26.6
2016-12-22T05:30:51.670Z,26.6
2016-12-22T05:31:52.908Z,26.6
2016-12-22T05:32:52.940Z,26.6
2016-12-22T05:33:53.018Z,26.6
2016-12-22T05:34:52.982Z,26.6
2016-12-22T05:35:53.070Z,26.6
2016-12-22T05:36:52.135Z,26.6
2016-12-22T05:37:53.368Z,26.6
2016-12-22T05:38:53.415Z,26.6
2016-12-22T05:39:53.388Z,26.6
2016-12-22T05:40:52.527Z,26.6
2016-12-22T05:41:53.596Z,26.6
2016-12-22T05:42:52.531Z,26.6
2016-12-22T05:43:53.692Z,26.6
2016-12-22T05:44:52.694Z,26.6
2016-12-22T05:45:54.110Z,26.6
2016-12-22T05:46:52.981Z,26.6
2016-12-22T05:47:52.974Z,26.7
2016-12-22T05:48:53.045Z,26.7
2016-12-22T05:49:53.063Z,26.8
2016-12-22T05:50:54.176Z,26.8
2016-12-22T05:51:54.206Z,26.9
2016-12-22T05:52:54.195Z,26.9
2016-12-22T05:53:53.272Z,27.1
2016-12-22T05:54:53.187Z,27.2
2016-12-22T05:55:54.355Z,27.3
2016-12-22T05:56:53.392Z,27.4
2016-12-22T05:57:53.430Z,27.5
2016-12-22T05:58:54.490Z,27.6
2016-12-22T05:59:54.578Z,27.6
2016-12-22T06:00:54.594Z,27.7
2016-12-22T06:01:53.564Z,27.8
2016-12-22T06:02:53.599Z,27.9
2016-12-22T06:03:54.619Z,28
2016-12-22T06:04:54.627Z,28.1
2016-12-22T06:05:54.780Z,28.1
2016-12-22T06:06:54.707Z,28.2
2016-12-22T06:07:53.820Z,28.3
2016-12-22T06:08:53.750Z,28.4
2016-12-22T06:09:53.842Z,28.4
2016-12-22T06:10:54.985Z,28.5
2016-12-22T06:11:55.002Z,28.5
2016-12-22T06:12:55.008Z,28.5
2016-12-22T06:13:54.017Z,28.5
2016-12-22T06:14:55.165Z,28.6
2016-12-22T06:15:54.275Z,28.6
2016-12-22T06:16:55.401Z,28.6
2016-12-22T06:17:55.421Z,28.6
2016-12-22T06:18:54.394Z,28.6
2016-12-22T06:19:55.527Z,28.6
2016-12-22T06:20:55.532Z,28.6
2016-12-22T06:21:55.619Z,28.7
2016-12-22T06:22:54.614Z,28.7
2016-12-22T06:23:54.699Z,28.7
2016-12-22T06:24:54.587Z,28.7
2016-12-22T06:25:54.745Z,28.7
2016-12-22T06:26:55.865Z,28.7
2016-12-22T06:27:54.819Z,28.7
2016-12-22T06:28:54.908Z,28.7
2016-12-22T06:29:56.036Z,28.7
2016-12-22T06:30:56.077Z,28.7
2016-12-22T06:31:55.064Z,28.7
2016-12-22T06:32:56.142Z,28.7
2016-12-22T06:33:56.154Z,28.7
2016-12-22T06:34:56.088Z,28.7
2016-12-22T06:35:56.169Z,28.7
2016-12-22T06:36:56.262Z,28.7
2016-12-22T06:37:56.210Z,28.7
2016-12-22T06:38:55.304Z,28.7
2016-12-22T06:39:56.306Z,28.8
2016-12-22T06:40:56.394Z,28.8
2016-12-22T06:41:56.332Z,28.7
2016-12-22T06:42:55.383Z,28.8
2016-12-22T06:43:56.424Z,28.8
2016-12-22T06:44:55.567Z,28.8
2016-12-22T06:45:56.645Z,28.9
2016-12-22T06:46:56.701Z,28.9
2016-12-22T06:47:57.262Z,28.8
2016-12-22T06:48:56.737Z,28.8
2016-12-22T06:49:55.766Z,28.8
2016-12-22T06:50:56.842Z,28.8
2016-12-22T06:51:56.808Z,28.8
2016-12-22T06:52:55.879Z,28.8
2016-12-22T06:53:55.816Z,28.8
2016-12-22T06:54:55.954Z,28.8
2016-12-22T06:55:55.966Z,28.8
2016-12-22T06:56:57.114Z,28.7
2016-12-22T06:57:56.062Z,28.7
2016-12-22T06:58:57.173Z,28.7
2016-12-22T06:59:56.061Z,28.7
2016-12-22T07:00:56.195Z,28.7
2016-12-22T07:01:56.212Z,28.6
2016-12-22T07:02:56.135Z,28.5
2016-12-22T07:03:56.218Z,28.4
2016-12-22T07:04:56.915Z,28.3
2016-12-22T07:05:58.629Z,28.3
2016-12-22T07:06:57.444Z,28.3
2016-12-22T07:07:56.294Z,28.3
2016-12-22T07:08:57.521Z,28.3
2016-12-22T07:09:56.413Z,28.3
2016-12-22T07:10:56.557Z,28.3
2016-12-22T07:11:57.640Z,28.3
2016-12-22T07:12:56.556Z,28.3
2016-12-22T07:13:57.756Z,28.3
2016-12-22T07:14:57.713Z,28.3
2016-12-22T07:15:57.784Z,28.4
2016-12-22T07:16:57.886Z,28.6
2016-12-22T07:17:57.909Z,28.6
2016-12-22T07:18:56.777Z,28.4
2016-12-22T07:19:57.928Z,28.3
2016-12-22T07:20:56.952Z,28.3
2016-12-22T07:21:56.860Z,28.4
2016-12-22T07:22:57.009Z,28.5
2016-12-22T07:23:58.083Z,28.5
2016-12-22T07:24:57.038Z,28.2
2016-12-22T07:25:58.137Z,28
2016-12-22T07:26:57.095Z,28
2016-12-22T07:27:57.002Z,28.1
2016-12-22T07:28:58.212Z,28.3
2016-12-22T07:29:57.093Z,28.3
2016-12-22T07:30:57.193Z,28.5
2016-12-22T07:31:58.315Z,28.6
2016-12-22T07:32:57.389Z,28.7
2016-12-22T07:33:58.441Z,28.8
2016-12-22T07:34:58.473Z,29
2016-12-22T07:35:58.544Z,29.3
2016-12-22T07:36:58.673Z,29.5
2016-12-22T07:37:58.727Z,29.6
2016-12-22T07:38:59.396Z,29.6
2016-12-22T07:39:57.787Z,29.8
2016-12-22T07:40:58.993Z,30
2016-12-22T07:41:57.986Z,30
2016-12-22T07:42:58.074Z,30.1
2016-12-22T07:43:58.030Z,30.1
2016-12-22T07:45:00.514Z,30.2
2016-12-22T07:46:01.245Z,30.4
2016-12-22T07:46:58.858Z,30.4
2016-12-22T07:47:58.838Z,30.1
2016-12-22T07:48:59.795Z,29.8
2016-12-22T07:50:01.712Z,29.7
2016-12-22T07:50:58.418Z,29.7
2016-12-22T07:51:58.424Z,29.4
2016-12-22T07:52:58.490Z,29
2016-12-22T07:54:00.887Z,28.8
2016-12-22T07:54:58.459Z,28.8
2016-12-22T07:55:59.597Z,28.8
2016-12-22T07:57:00.328Z,28.8
2016-12-22T07:57:59.343Z,28.9
2016-12-22T07:58:58.728Z,28.9
2016-12-22T07:59:58.848Z,29
2016-12-22T08:00:59.903Z,29
2016-12-22T08:01:59.927Z,29.1
2016-12-22T08:02:58.876Z,29.2
2016-12-22T08:04:00.871Z,29.2
2016-12-22T08:04:59.040Z,29.3
2016-12-22T08:05:59.273Z,29.3
2016-12-22T08:07:00.945Z,29.3
2016-12-22T08:08:00.034Z,29.4
2016-12-22T08:09:00.004Z,29.4
2016-12-22T08:10:00.048Z,29.2
2016-12-22T08:11:00.524Z,28.9
2016-12-22T08:11:59.563Z,28.6
2016-12-22T08:13:01.913Z,28.6
2016-12-22T08:13:59.690Z,28.9
2016-12-22T08:15:00.759Z,29.1
2016-12-22T08:15:59.667Z,29.2
2016-12-22T08:17:00.512Z,29.3
2016-12-22T08:17:59.802Z,29.4
2016-12-22T08:18:59.748Z,29.4
2016-12-22T08:19:59.798Z,29.4
2016-12-22T08:21:00.990Z,29.4
2016-12-22T08:21:59.996Z,29.5
2016-12-22T08:23:01.231Z,29.7
2016-12-22T08:24:00.137Z,29.7
2016-12-22T08:25:00.795Z,29.8
2016-12-22T08:26:01.962Z,29.9
2016-12-22T08:27:00.209Z,29.8
2016-12-22T08:28:01.375Z,29.8
2016-12-22T08:29:00.411Z,29.8
2016-12-22T08:30:00.497Z,29.8
2016-12-22T08:31:02.198Z,29.8
2016-12-22T08:32:02.336Z,29.8
2016-12-22T08:33:12.451Z,29.8
2016-12-22T08:34:02.448Z,29.8
2016-12-22T08:35:03.907Z,29.8
2016-12-22T08:36:01.688Z,29.9
2016-12-22T08:37:01.214Z,29.9
2016-12-22T08:38:00.722Z,30
2016-12-22T08:39:01.875Z,30
2016-12-22T08:40:02.545Z,30
2016-12-22T08:41:02.475Z,29.9
2016-12-22T08:42:03.729Z,29.9
2016-12-22T08:43:01.691Z,30
2016-12-22T08:44:02.672Z,30
2016-12-22T08:45:02.363Z,30
2016-12-22T08:46:01.185Z,30.1
2016-12-22T08:47:02.045Z,30.2
2016-12-22T08:48:02.465Z,30.2
2016-12-22T08:49:01.436Z,30.2
2016-12-22T08:50:02.429Z,30.2
2016-12-22T08:51:01.519Z,30.2
2016-12-22T08:52:03.381Z,30.1
2016-12-22T08:53:02.221Z,30.1
2016-12-22T08:54:01.648Z,30.1
2016-12-22T08:55:02.139Z,30.1
2016-12-22T08:56:01.695Z,30.2
2016-12-22T08:57:04.278Z,30.4
2016-12-22T08:58:02.964Z,30.3
2016-12-22T08:59:01.827Z,30.2
2016-12-22T09:00:02.549Z,30.3
2016-12-22T09:01:03.778Z,30.3
2016-12-22T09:02:03.987Z,30.3
2016-12-22T09:03:03.097Z,30.3
2016-12-22T09:04:02.128Z,30.3
2016-12-22T09:05:03.229Z,30.2
2016-12-22T09:06:04.008Z,30.2
2016-12-22T09:07:03.389Z,30.2
2016-12-22T09:08:02.368Z,30.2
2016-12-22T09:09:03.012Z,30.2
2016-12-22T09:10:02.419Z,30
2016-12-22T09:11:03.168Z,29.7
2016-12-22T09:12:04.640Z,29.3
2016-12-22T09:13:03.268Z,28.9
2016-12-22T09:14:03.277Z,28.6
2016-12-22T09:15:02.613Z,28.4
2016-12-22T09:16:02.719Z,28.2
2016-12-22T09:17:03.730Z,28.1
2016-12-22T09:18:04.514Z,27.9
2016-12-22T09:22:09.423Z,27.7
2016-12-22T09:22:22.810Z,27.9
2016-12-22T09:23:23.952Z,27.9
2016-12-22T09:24:23.949Z,27.9
2016-12-22T09:25:23.355Z,28
2016-12-22T09:26:23.780Z,28
2016-12-22T09:27:24.630Z,28.1
2016-12-22T09:28:25.217Z,28.1
2016-12-22T09:29:23.772Z,28.1
2016-12-22T09:30:25.041Z,28.1
2016-12-22T09:31:25.105Z,28.2
2016-12-22T09:32:23.678Z,28.2
2016-12-22T09:33:27.356Z,28.2
2016-12-22T09:34:26.796Z,28.3
2016-12-22T09:35:24.012Z,28.3
2016-12-22T09:36:24.129Z,28.1
2016-12-22T09:37:25.262Z,27.7
2016-12-22T09:38:25.170Z,27.6
2016-12-22T09:39:24.236Z,27.4
2016-12-22T09:40:23.094Z,27.3
2016-12-22T09:41:24.555Z,27.2
2016-12-22T09:42:26.170Z,27.2
2016-12-22T09:43:23.383Z,27.2
2016-12-22T09:44:23.765Z,27.1
2016-12-22T09:45:26.646Z,27.1
2016-12-22T09:46:25.188Z,27.3
2016-12-22T09:47:26.673Z,27.4
2016-12-22T09:48:26.773Z,27.4
2016-12-22T09:49:27.335Z,27.4
2016-12-22T09:50:24.249Z,27.4
2016-12-22T09:51:24.248Z,27.4
2016-12-22T09:52:23.864Z,27.4
2016-12-22T09:53:25.131Z,27.4
2016-12-22T09:54:24.986Z,27.4
2016-12-22T09:55:26.422Z,27.4
2016-12-22T09:56:25.460Z,27.4
2016-12-22T09:57:29.390Z,27.4
2016-12-22T09:58:25.755Z,27.4
2016-12-22T09:59:26.432Z,27.4
2016-12-22T10:00:25.620Z,27.4
2016-12-22T10:01:27.254Z,27.4
2016-12-22T10:02:27.367Z,27.4
2016-12-22T10:03:24.327Z,27.4
2016-12-22T10:04:25.551Z,27.4
2016-12-22T10:05:25.623Z,27.4
2016-12-22T10:06:25.171Z,27.4
2016-12-22T10:07:25.589Z,27.4
2016-12-22T10:08:25.698Z,27.4
2016-12-22T10:09:24.655Z,27.4
2016-12-22T10:10:24.630Z,27.5
2016-12-22T10:11:26.842Z,27.5
2016-12-22T10:12:27.830Z,27.5
2016-12-22T10:13:25.570Z,27.5
2016-12-22T10:14:24.949Z,27.5
2016-12-22T10:15:27.079Z,27.5
2016-12-22T10:16:26.491Z,27.5
2016-12-22T10:17:26.958Z,27.5
2016-12-22T10:18:25.894Z,27.5
2016-12-22T10:19:27.660Z,27.5
2016-12-22T10:20:30.790Z,27.5
2016-12-22T10:21:28.748Z,27.5
2016-12-22T10:22:29.237Z,27.5
2016-12-22T10:23:26.446Z,27.5
2016-12-22T10:24:28.589Z,27.5
2016-12-22T10:25:26.148Z,27.5
2016-12-22T10:26:27.890Z,27.5
2016-12-22T10:27:25.533Z,27.5
2016-12-22T10:28:26.640Z,27.5
2016-12-22T10:29:26.643Z,27.5
2016-12-22T10:30:25.858Z,27.5
2016-12-22T10:31:27.583Z,27.5
2016-12-22T10:32:25.837Z,27.5
2016-12-22T10:33:29.358Z,27.5
2016-12-22T10:34:27.093Z,27.5
2016-12-22T10:35:26.024Z,27.5
2016-12-22T10:36:27.022Z,27.5
2016-12-22T10:37:26.692Z,27.5
2016-12-22T10:38:28.417Z,27.5
2016-12-22T10:39:27.259Z,27.5
2016-12-22T10:40:26.220Z,27.5
2016-12-22T10:41:26.798Z,27.5
2016-12-22T10:42:27.812Z,27.5
2016-12-22T10:43:27.429Z,27.5
2016-12-22T10:44:26.330Z,27.5
2016-12-22T10:45:27.285Z,27.5
2016-12-22T10:46:26.655Z,27.5
2016-12-22T10:47:27.726Z,27.5
2016-12-22T10:48:26.601Z,27.5
2016-12-22T10:49:31.073Z,27.5
2016-12-22T10:50:26.606Z,27.5
2016-12-22T10:51:28.939Z,27.4
2016-12-22T10:52:27.551Z,27.4
2016-12-22T10:53:29.323Z,27.3
2016-12-22T10:54:28.992Z,27.3
2016-12-22T10:55:28.106Z,27.2
2016-12-22T10:56:28.047Z,27.2
2016-12-22T10:57:27.021Z,27.2
2016-12-22T10:58:28.033Z,27.2
2016-12-22T10:59:29.578Z,27.2
2016-12-22T11:00:27.953Z,27.2
2016-12-22T11:01:27.921Z,27.1
2016-12-22T11:02:28.427Z,27.1
2016-12-22T11:03:29.433Z,27.2
2016-12-22T11:04:28.744Z,27.2
2016-12-22T11:05:30.497Z,27.2
2016-12-22T11:06:36.857Z,27.2
2016-12-22T11:07:31.906Z,27.2
2016-12-22T11:08:27.677Z,27.2
2016-12-22T11:09:28.739Z,27.2
2016-12-22T11:10:29.679Z,27.2
2016-12-22T11:11:28.705Z,27.3
2016-12-22T11:12:28.867Z,27.3
2016-12-22T11:13:27.832Z,27.3
2016-12-22T11:14:29.518Z,27.3
2016-12-22T11:15:31.200Z,27.3
2016-12-22T11:16:29.626Z,27.4
2016-12-22T11:17:29.473Z,27.4
2016-12-22T11:18:27.963Z,27.4
2016-12-22T11:19:29.003Z,27.4
2016-12-22T11:20:29.474Z,27.4
2016-12-22T11:21:28.630Z,27.5
2016-12-22T11:22:30.810Z,27.5
2016-12-22T11:23:29.967Z,27.5
2016-12-22T11:24:28.955Z,27.6
2016-12-22T11:25:29.335Z,27.6
2016-12-22T11:26:29.974Z,27.6
2016-12-22T11:27:30.217Z,27.7
2016-12-22T11:28:31.565Z,27.7
2016-12-22T11:29:30.449Z,27.7
2016-12-22T11:30:29.488Z,27.7
2016-12-22T11:31:29.783Z,27.8
2016-12-22T11:32:28.652Z,27.8
2016-12-22T11:33:29.892Z,27.8
2016-12-22T11:34:30.565Z,27.9
2016-12-22T11:35:29.803Z,27.9
2016-12-22T11:36:29.527Z,27.9
2016-12-22T11:37:31.166Z,28
2016-12-22T11:38:29.994Z,28
2016-12-22T11:39:31.838Z,28
2016-12-22T11:40:31.214Z,28.1
2016-12-22T11:41:29.149Z,28.1
2016-12-22T11:42:31.259Z,28.1
2016-12-22T11:43:29.209Z,28.1
2016-12-22T11:44:30.319Z,28.1
2016-12-22T11:45:29.270Z,28.2
2016-12-22T11:46:31.378Z,28.2
2016-12-22T11:47:31.971Z,28.2
2016-12-22T11:48:31.762Z,28.2
2016-12-22T11:49:34.871Z,28.2
2016-12-22T11:50:30.826Z,28.2
2016-12-22T11:51:30.836Z,28.3
2016-12-22T11:52:31.017Z,28.3
2016-12-22T11:53:29.672Z,28.3
2016-12-22T11:56:10.102Z,28.4
2016-12-22T11:57:10.443Z,28.5
2016-12-22T11:58:09.867Z,28.4
2016-12-22T11:59:12.679Z,28.4
2016-12-22T12:00:10.908Z,28.1
2016-12-22T12:01:13.038Z,27.8
2016-12-22T12:02:09.254Z,27.5
2016-12-22T12:03:09.908Z,27.4
2016-12-22T12:04:09.365Z,27.4
2016-12-22T12:05:10.568Z,27.3
2016-12-22T12:06:13.047Z,27.2
2016-12-22T12:07:15.162Z,27
2016-12-22T12:08:12.586Z,27
2016-12-22T12:09:14.262Z,27
2016-12-22T12:10:16.065Z,26.9
2016-12-22T12:11:11.480Z,26.9
2016-12-22T12:12:10.204Z,27
2016-12-22T12:13:11.408Z,27
2016-12-22T12:14:10.978Z,26.9
2016-12-22T12:15:16.049Z,26.9
2016-12-22T12:16:18.868Z,26.9
2016-12-22T12:17:15.944Z,26.9
2016-12-22T12:18:22.911Z,26.9
2016-12-22T12:19:12.680Z,26.9
2016-12-22T12:20:11.540Z,26.9
2016-12-22T12:21:13.984Z,26.9
2016-12-22T12:22:11.275Z,27
2016-12-22T12:23:12.827Z,27
2016-12-22T12:24:17.548Z,27.1
2016-12-22T12:25:12.250Z,27.1
2016-12-22T12:26:12.004Z,27.1
2016-12-22T12:27:14.873Z,27.1
2016-12-22T12:28:10.710Z,27.2
2016-12-22T12:29:12.060Z,27.2
2016-12-22T12:30:13.462Z,27.2
2016-12-22T12:31:12.084Z,27.2
2016-12-22T12:32:12.144Z,27.2
2016-12-22T12:33:12.031Z,27.3
2016-12-22T12:34:12.254Z,27.3
2016-12-22T12:35:13.636Z,27.3
2016-12-22T12:36:13.518Z,27.3
2016-12-22T12:37:12.400Z,27.3
2016-12-22T12:38:12.814Z,27.4
2016-12-22T12:39:14.697Z,27.4
2016-12-22T12:40:11.254Z,27.4
2016-12-22T12:41:11.211Z,27.5
2016-12-22T12:42:12.619Z,27.5
2016-12-22T12:43:11.362Z,27.5
2016-12-22T12:44:12.234Z,27.5
2016-12-22T12:45:12.669Z,27.6
2016-12-22T12:46:13.060Z,27.6
2016-12-22T12:47:12.587Z,27.6
2016-12-22T12:48:12.189Z,27.6
2016-12-22T12:49:13.637Z,27.6
2016-12-22T12:50:12.404Z,27.6
2016-12-22T12:51:12.742Z,27.7
2016-12-22T12:52:12.842Z,27.8
2016-12-22T12:53:12.944Z,27.9
2016-12-22T12:54:11.870Z,27.9
2016-12-22T12:55:13.641Z,28
2016-12-22T12:56:11.893Z,28
2016-12-22T12:57:13.137Z,28
2016-12-22T12:58:12.253Z,28.1
2016-12-22T12:59:12.829Z,28.3
2016-12-22T13:00:13.900Z,28.4
2016-12-22T13:01:12.844Z,28.5
2016-12-22T13:02:12.474Z,28.6
2016-12-22T13:03:14.361Z,28.6
2016-12-22T13:04:14.793Z,28.7
2016-12-22T13:05:15.853Z,28.8
2016-12-22T13:06:13.560Z,28.8
2016-12-22T13:07:12.547Z,28.8
2016-12-22T13:08:12.642Z,29
2016-12-22T13:09:12.584Z,29.1
2016-12-22T13:10:13.773Z,29.1
2016-12-22T13:11:15.597Z,29.2
2016-12-22T13:12:13.285Z,29.2
2016-12-22T13:13:12.863Z,29.2
2016-12-22T13:14:13.935Z,29.2
2016-12-22T13:15:12.956Z,29.2
2016-12-22T13:16:12.929Z,29.2
2016-12-22T13:17:13.832Z,29.2
2016-12-22T13:18:15.278Z,29.2
2016-12-22T13:19:14.261Z,29.2
2016-12-22T13:20:13.887Z,29.1
2016-12-22T13:21:13.953Z,29.1
2016-12-22T13:22:13.238Z,29.1
2016-12-22T13:23:13.460Z,29.1
2016-12-22T13:24:13.554Z,29.1
2016-12-22T13:25:15.857Z,29
2016-12-22T13:26:14.624Z,29
2016-12-22T13:27:14.625Z,29
2016-12-22T13:28:13.729Z,28.9
2016-12-22T13:29:13.639Z,28.9